Time;durP1;ratioP1;P1;durP2;ratioP2;P2;SDS_P1;SDS_P2;PMS_P1;PMS_P2;Temp;Humidity;BMP_temperature;BMP_pressure;BME280_temperature;BME280_humidity;BME280_pressure;Samples;Min_cycle;Max_cycle;Signal;HPM_P1;HPM_P2
2023/10/04 00:02:36;;;;;;;4.45;2.42;;;;;;;;;;6257148;28;20429;-70
2023/10/04 00:05:41;;;;;;;6.20;2.67;;;;;;;;;;6257509;28;20584;-70
2023/10/04 00:08:45;;;;;;;4.88;2.65;;;;;;;;;;6257469;28;20596;-71
2023/10/04 00:11:50;;;;;;;3.70;2.50;;;;;;;;;;6257879;28;20503;-70
2023/10/04 00:14:54;;;;;;;4.85;2.90;;;;;;;;;;6253095;28;20307;-71
2023/10/04 00:17:58;;;;;;;3.15;2.58;;;;;;;;;;6257295;28;20311;-70
2023/10/04 00:21:06;;;;;;;2.95;2.58;;;;;;;;;;6257912;28;20572;-70
2023/10/04 00:24:10;;;;;;;8.48;3.00;;;;;;;;;;6257049;28;20300;-71
2023/10/04 00:27:14;;;;;;;5.78;2.72;;;;;;;;;;6257533;28;20307;-71
2023/10/04 00:30:18;;;;;;;6.82;2.92;;;;;;;;;;6256663;28;20303;-71
2023/10/04 00:33:22;;;;;;;5.65;2.67;;;;;;;;;;6257049;28;20266;-70
2023/10/04 00:36:29;;;;;;;3.70;2.60;;;;;;;;;;6255330;28;20312;-70
2023/10/04 00:39:34;;;;;;;6.97;2.50;;;;;;;;;;6253309;28;20323;-73
2023/10/04 00:42:38;;;;;;;4.57;2.30;;;;;;;;;;6256792;28;20299;-71
2023/10/04 00:45:44;;;;;;;4.32;2.80;;;;;;;;;;6256500;28;20283;-70
2023/10/04 00:48:49;;;;;;;5.93;3.00;;;;;;;;;;6254975;28;20303;-71
2023/10/04 00:51:58;;;;;;;6.38;2.78;;;;;;;;;;6256766;28;20276;-71
2023/10/04 00:55:02;;;;;;;3.75;2.50;;;;;;;;;;6256628;28;20400;-72
2023/10/04 00:58:07;;;;;;;5.55;2.75;;;;;;;;;;6270944;28;20335;-72
2023/10/04 01:01:11;;;;;;;7.53;3.15;;;;;;;;;;6271889;28;20299;-70
2023/10/04 01:04:15;;;;;;;2.75;2.58;;;;;;;;;;6256319;28;20320;-70
2023/10/04 01:07:21;;;;;;;9.52;2.92;;;;;;;;;;6245815;28;20307;-70
2023/10/04 01:10:30;;;;;;;4.05;2.55;;;;;;;;;;6209133;28;20297;-70
2023/10/04 01:13:34;;;;;;;2.90;2.67;;;;;;;;;;6252964;28;20318;-70
2023/10/04 01:16:41;;;;;;;6.22;2.67;;;;;;;;;;6279266;28;20298;-70
2023/10/04 01:19:45;;;;;;;5.85;2.65;;;;;;;;;;6278761;28;20299;-71
2023/10/04 01:22:51;;;;;;;3.67;2.80;;;;;;;;;;6279699;28;20286;-73
2023/10/04 01:25:55;;;;;;;3.40;2.65;;;;;;;;;;6279114;28;20603;-73
2023/10/04 01:29:03;;;;;;;10.02;3.13;;;;;;;;;;6280655;28;20314;-70
2023/10/04 01:32:08;;;;;;;5.70;2.45;;;;;;;;;;6295852;28;20303;-70
2023/10/04 01:35:12;;;;;;;4.60;2.45;;;;;;;;;;6280294;28;20326;-70
2023/10/04 01:38:18;;;;;;;4.85;2.80;;;;;;;;;;6279948;28;20473;-69
2023/10/04 01:41:22;;;;;;;3.65;2.40;;;;;;;;;;6265913;28;20304;-71
2023/10/04 01:44:27;;;;;;;3.63;2.38;;;;;;;;;;6230925;28;20300;-70
2023/10/04 01:47:31;;;;;;;8.07;3.13;;;;;;;;;;6231115;28;20299;-69
2023/10/04 01:50:35;;;;;;;2.97;2.63;;;;;;;;;;6230154;28;20300;-72
2023/10/04 01:53:42;;;;;;;5.38;2.90;;;;;;;;;;6221309;28;20301;-69
2023/10/04 01:56:46;;;;;;;8.63;2.92;;;;;;;;;;6230232;28;20321;-70
2023/10/04 01:59:50;;;;;;;6.10;2.35;;;;;;;;;;6262404;28;20347;-71
2023/10/04 02:02:54;;;;;;;3.97;2.45;;;;;;;;;;6231186;28;20287;-71
2023/10/04 02:06:00;;;;;;;2.70;2.47;;;;;;;;;;6263034;28;20304;-69
2023/10/04 02:09:11;;;;;;;6.45;2.83;;;;;;;;;;6246300;28;20319;-70
2023/10/04 02:12:16;;;;;;;4.85;2.17;;;;;;;;;;6270384;28;20300;-72
2023/10/04 02:15:20;;;;;;;5.90;2.47;;;;;;;;;;6274856;28;20298;-71
2023/10/04 02:18:24;;;;;;;5.25;2.80;;;;;;;;;;6295046;28;20310;-71
2023/10/04 02:21:28;;;;;;;5.90;2.60;;;;;;;;;;6280461;28;20306;-71
2023/10/04 02:24:34;;;;;;;2.92;2.65;;;;;;;;;;6279958;28;20387;-70
2023/10/04 02:27:38;;;;;;;6.53;3.13;;;;;;;;;;6278920;28;20473;-72
2023/10/04 02:30:42;;;;;;;6.72;2.72;;;;;;;;;;6280572;28;20252;-70
2023/10/04 02:33:46;;;;;;;3.88;2.70;;;;;;;;;;6279074;28;20231;-70
2023/10/04 02:36:51;;;;;;;8.30;3.17;;;;;;;;;;6278018;28;20299;-70
2023/10/04 02:39:57;;;;;;;5.25;3.00;;;;;;;;;;6272398;28;20292;-71
2023/10/04 02:43:02;;;;;;;5.75;2.65;;;;;;;;;;6259455;28;20303;-71
2023/10/04 02:46:06;;;;;;;3.35;2.53;;;;;;;;;;6260067;28;20295;-71
2023/10/04 02:49:10;;;;;;;10.30;3.10;;;;;;;;;;6259467;28;20306;-70
2023/10/04 02:52:15;;;;;;;7.50;3.28;;;;;;;;;;6274902;28;20291;-71
2023/10/04 02:55:21;;;;;;;5.55;2.95;;;;;;;;;;6274636;28;20295;-72
2023/10/04 02:58:25;;;;;;;4.25;2.88;;;;;;;;;;6255023;28;20299;-71
2023/10/04 03:01:30;;;;;;;7.05;2.80;;;;;;;;;;6257289;28;20284;-76
2023/10/04 03:04:35;;;;;;;3.22;2.92;;;;;;;;;;6256347;28;20313;-73
2023/10/04 03:07:41;;;;;;;6.25;3.00;;;;;;;;;;6258498;28;20296;-71
2023/10/04 03:10:50;;;;;;;5.40;2.75;;;;;;;;;;6264335;28;20480;-70
2023/10/04 03:13:59;;;;;;;4.35;2.70;;;;;;;;;;6241239;28;20462;-72
2023/10/04 03:17:13;;;;;;;4.53;3.03;;;;;;;;;;6274363;28;20295;-71
2023/10/04 03:20:20;;;;;;;5.47;2.90;;;;;;;;;;6267191;28;20325;-73
2023/10/04 03:23:27;;;;;;;5.57;2.90;;;;;;;;;;6265940;28;20300;-71
2023/10/04 03:26:33;;;;;;;7.15;3.00;;;;;;;;;;6249182;28;20308;-70
2023/10/04 03:29:39;;;;;;;7.90;2.83;;;;;;;;;;6224666;28;20365;-71
2023/10/04 03:32:45;;;;;;;7.38;3.17;;;;;;;;;;6227448;28;20665;-70
2023/10/04 03:35:49;;;;;;;6.30;2.88;;;;;;;;;;6234468;28;20739;-70
2023/10/04 03:38:54;;;;;;;9.23;3.13;;;;;;;;;;6267864;28;20300;-70
2023/10/04 03:42:00;;;;;;;5.40;2.78;;;;;;;;;;6239699;28;20305;-70
2023/10/04 03:45:05;;;;;;;7.97;2.83;;;;;;;;;;6224134;28;20386;-72
2023/10/04 03:48:15;;;;;;;6.07;2.80;;;;;;;;;;6224173;28;20285;-72
2023/10/04 03:51:23;;;;;;;4.55;2.85;;;;;;;;;;6247535;28;20299;-69
2023/10/04 03:54:32;;;;;;;5.07;3.25;;;;;;;;;;6253943;28;20308;-71
2023/10/04 03:57:42;;;;;;;5.80;2.55;;;;;;;;;;6232533;28;20425;-72
2023/10/04 04:00:47;;;;;;;8.23;3.05;;;;;;;;;;6240549;28;20419;-70
2023/10/04 04:03:51;;;;;;;5.03;2.47;;;;;;;;;;6248265;28;20296;-73
2023/10/04 04:06:55;;;;;;;5.68;2.70;;;;;;;;;;6233699;28;20257;-73
2023/10/04 04:10:01;;;;;;;5.25;2.70;;;;;;;;;;6232851;28;20292;-71
2023/10/04 04:13:07;;;;;;;3.38;2.42;;;;;;;;;;6240603;28;20291;-72
2023/10/04 04:16:11;;;;;;;3.65;2.35;;;;;;;;;;6296982;28;20242;-70
2023/10/04 04:19:19;;;;;;;5.85;2.50;;;;;;;;;;6280847;28;20295;-71
2023/10/04 04:22:27;;;;;;;5.70;3.17;;;;;;;;;;6297237;28;20295;-71
2023/10/04 04:25:33;;;;;;;3.72;2.47;;;;;;;;;;6280416;28;20295;-73
2023/10/04 04:28:39;;;;;;;3.72;2.45;;;;;;;;;;6279662;28;20282;-71
2023/10/04 04:31:47;;;;;;;5.68;2.30;;;;;;;;;;6297043;28;20287;-73
2023/10/04 04:34:51;;;;;;;2.65;2.45;;;;;;;;;;6296711;28;20318;-70
2023/10/04 04:37:57;;;;;;;2.75;2.10;;;;;;;;;;6296821;28;20294;-71
2023/10/04 04:41:05;;;;;;;9.32;2.60;;;;;;;;;;6269845;28;20296;-72
2023/10/04 04:44:11;;;;;;;4.40;2.20;;;;;;;;;;6230375;28;20296;-71
2023/10/04 04:47:18;;;;;;;5.70;2.15;;;;;;;;;;6232239;28;20605;-70
2023/10/04 04:50:23;;;;;;;6.22;2.45;;;;;;;;;;6231572;28;20300;-71
2023/10/04 04:53:27;;;;;;;5.97;2.15;;;;;;;;;;6262785;28;20304;-72
2023/10/04 04:56:32;;;;;;;2.75;2.22;;;;;;;;;;6264253;28;20308;-71
2023/10/04 04:59:43;;;;;;;5.13;2.50;;;;;;;;;;6222174;28;20308;-72
2023/10/04 05:02:47;;;;;;;6.63;2.42;;;;;;;;;;6229782;28;20589;-72
2023/10/04 05:05:51;;;;;;;8.27;2.38;;;;;;;;;;6231593;28;20295;-70
2023/10/04 05:08:56;;;;;;;3.67;2.38;;;;;;;;;;6231187;28;20297;-71
2023/10/04 05:12:00;;;;;;;3.65;2.35;;;;;;;;;;6271332;28;20553;-72
2023/10/04 05:15:21;;;;;;;2.78;2.08;;;;;;;;;;6255965;28;20378;-71
2023/10/04 05:18:26;;;;;;;4.60;2.17;;;;;;;;;;6255812;28;20343;-72
2023/10/04 05:21:30;;;;;;;3.13;2.28;;;;;;;;;;6255951;28;20291;-71
2023/10/04 05:24:36;;;;;;;8.38;2.38;;;;;;;;;;6255579;28;20588;-70
2023/10/04 05:27:40;;;;;;;5.10;1.90;;;;;;;;;;6255795;28;20501;-72
2023/10/04 05:30:46;;;;;;;2.60;1.90;;;;;;;;;;6255957;28;20603;-72
2023/10/04 05:33:50;;;;;;;1.88;1.77;;;;;;;;;;6270318;28;20331;-71
2023/10/04 05:36:54;;;;;;;3.78;1.92;;;;;;;;;;6255615;28;20425;-72
2023/10/04 05:39:57;;;;;;;6.57;2.00;;;;;;;;;;6254292;28;20721;-72
2023/10/04 05:43:02;;;;;;;4.43;1.98;;;;;;;;;;6256220;28;20292;-71
2023/10/04 05:46:08;;;;;;;4.88;2.03;;;;;;;;;;6255633;28;20299;-74
2023/10/04 05:49:12;;;;;;;4.78;2.22;;;;;;;;;;6255400;28;20497;-71
2023/10/04 05:52:16;;;;;;;2.03;1.90;;;;;;;;;;6255319;28;20295;-72
2023/10/04 05:55:20;;;;;;;5.13;2.20;;;;;;;;;;6254959;28;20398;-71
2023/10/04 05:58:25;;;;;;;4.65;2.33;;;;;;;;;;6255071;28;20311;-71
2023/10/04 06:01:34;;;;;;;4.85;2.05;;;;;;;;;;6255449;28;20303;-73
2023/10/04 06:04:39;;;;;;;5.90;1.90;;;;;;;;;;6255170;28;20307;-70
2023/10/04 06:07:43;;;;;;;4.75;1.73;;;;;;;;;;6255532;28;20359;-71
2023/10/04 06:10:48;;;;;;;8.93;2.15;;;;;;;;;;6255164;28;20303;-71
2023/10/04 06:13:52;;;;;;;5.78;2.00;;;;;;;;;;6258122;28;20504;-72
2023/10/04 06:16:59;;;;;;;4.20;2.50;;;;;;;;;;6260340;28;20240;-71
2023/10/04 06:20:13;;;;;;;3.58;2.08;;;;;;;;;;6259650;28;20291;-71
2023/10/04 06:23:17;;;;;;;3.25;2.08;;;;;;;;;;6259721;28;20303;-72
2023/10/04 06:26:21;;;;;;;2.70;1.95;;;;;;;;;;6260104;28;20486;-71
2023/10/04 06:29:26;;;;;;;7.28;2.30;;;;;;;;;;6259894;28;20283;-71
2023/10/04 06:32:37;;;;;;;4.70;2.03;;;;;;;;;;6259795;28;20283;-71
2023/10/04 06:35:43;;;;;;;5.70;1.90;;;;;;;;;;6258844;28;20371;-73
2023/10/04 06:38:48;;;;;;;5.47;2.17;;;;;;;;;;6256900;28;20296;-73
2023/10/04 06:41:52;;;;;;;2.85;2.30;;;;;;;;;;6257444;28;20654;-71
2023/10/04 06:44:56;;;;;;;3.70;2.33;;;;;;;;;;6259264;28;20479;-71
2023/10/04 06:48:03;;;;;;;5.85;1.95;;;;;;;;;;6259361;28;20338;-71
2023/10/04 06:51:08;;;;;;;7.03;2.38;;;;;;;;;;6258700;28;20299;-72
2023/10/04 06:54:11;;;;;;;9.02;2.53;;;;;;;;;;6259085;28;20623;-75
2023/10/04 06:57:17;;;;;;;3.28;2.22;;;;;;;;;;6259316;28;20557;-71
2023/10/04 07:00:26;;;;;;;6.97;2.30;;;;;;;;;;6258457;28;20292;-71
2023/10/04 07:03:32;;;;;;;9.38;2.83;;;;;;;;;;6258502;28;20292;-71
2023/10/04 07:06:36;;;;;;;8.32;1.88;;;;;;;;;;6259145;28;20296;-73
2023/10/04 07:09:40;;;;;;;5.35;1.92;;;;;;;;;;6257926;28;20607;-72
2023/10/04 07:12:45;;;;;;;2.25;1.92;;;;;;;;;;6259054;28;20240;-71
2023/10/04 07:15:49;;;;;;;6.63;2.15;;;;;;;;;;6258361;28;20236;-72
2023/10/04 07:18:55;;;;;;;5.43;1.95;;;;;;;;;;6258615;28;20300;-72
2023/10/04 07:21:59;;;;;;;1.70;1.60;;;;;;;;;;6258854;28;20307;-71
2023/10/04 07:25:07;;;;;;;4.72;2.17;;;;;;;;;;6257571;28;20299;-73
2023/10/04 07:28:11;;;;;;;18.48;2.47;;;;;;;;;;6258496;28;20292;-71
2023/10/04 07:31:15;;;;;;;6.78;2.25;;;;;;;;;;6257787;28;20296;-69
2023/10/04 07:34:20;;;;;;;6.00;1.75;;;;;;;;;;6257915;28;20355;-71
2023/10/04 07:37:24;;;;;;;4.20;1.75;;;;;;;;;;6258152;28;20303;-71
2023/10/04 07:40:30;;;;;;;5.40;1.98;;;;;;;;;;6255863;28;20311;-74
2023/10/04 07:43:35;;;;;;;2.75;1.67;;;;;;;;;;6258015;28;20589;-70
2023/10/04 07:46:41;;;;;;;3.45;1.88;;;;;;;;;;6258549;28;20300;-70
2023/10/04 07:49:47;;;;;;;6.57;1.95;;;;;;;;;;6257646;28;20299;-70
2023/10/04 07:52:52;;;;;;;4.35;1.88;;;;;;;;;;6257889;28;20323;-70
2023/10/04 07:55:56;;;;;;;5.75;2.30;;;;;;;;;;6257245;28;20496;-70
2023/10/04 07:59:01;;;;;;;4.97;2.20;;;;;;;;;;6257432;28;20592;-70
2023/10/04 08:02:05;;;;;;;2.65;1.90;;;;;;;;;;6257510;28;20315;-71
2023/10/04 08:05:10;;;;;;;6.05;1.90;;;;;;;;;;6257340;28;20307;-71
2023/10/04 08:08:14;;;;;;;13.52;2.60;;;;;;;;;;6257160;28;20296;-71
2023/10/04 08:11:18;;;;;;;9.20;1.98;;;;;;;;;;6257504;28;20311;-71
2023/10/04 08:14:23;;;;;;;4.88;1.67;;;;;;;;;;6256886;28;20340;-73
2023/10/04 08:17:27;;;;;;;4.25;1.92;;;;;;;;;;6257320;28;20696;-71
2023/10/04 08:20:33;;;;;;;5.30;1.88;;;;;;;;;;6256649;28;20303;-71
2023/10/04 08:23:38;;;;;;;4.32;1.50;;;;;;;;;;6256629;28;20291;-73
2023/10/04 08:26:42;;;;;;;6.53;1.83;;;;;;;;;;6257273;28;20790;-73
2023/10/04 08:29:46;;;;;;;5.97;1.60;;;;;;;;;;6256831;28;20569;-71
2023/10/04 08:32:51;;;;;;;2.92;1.52;;;;;;;;;;6257220;28;20295;-71
2023/10/04 08:35:56;;;;;;;4.72;1.80;;;;;;;;;;6255156;28;20314;-70
2023/10/04 08:39:10;;;;;;;3.30;1.70;;;;;;;;;;6254997;28;20292;-78
2023/10/04 08:42:14;;;;;;;7.35;2.13;;;;;;;;;;6232220;28;20309;-71
2023/10/04 08:45:18;;;;;;;4.80;1.77;;;;;;;;;;6214725;28;20292;-73
2023/10/04 08:48:25;;;;;;;2.70;1.80;;;;;;;;;;6208689;28;20304;-71
2023/10/04 08:51:38;;;;;;;4.70;1.80;;;;;;;;;;6232189;28;20562;-70
2023/10/04 08:54:45;;;;;;;6.15;1.98;;;;;;;;;;6230701;28;20315;-72
2023/10/04 08:57:59;;;;;;;3.15;1.80;;;;;;;;;;6321907;27;20800;-70
2023/10/04 09:01:06;;;;;;;9.60;1.70;;;;;;;;;;6276128;28;20299;-71
2023/10/04 09:04:13;;;;;;;5.45;1.85;;;;;;;;;;6276528;28;20298;-71
2023/10/04 09:07:19;;;;;;;9.13;1.95;;;;;;;;;;6276482;28;20291;-71
2023/10/04 09:10:25;;;;;;;8.52;1.80;;;;;;;;;;6276223;28;20291;-71
2023/10/04 09:13:31;;;;;;;6.00;1.98;;;;;;;;;;6275859;28;20366;-71
2023/10/04 09:16:35;;;;;;;4.40;1.70;;;;;;;;;;6276442;28;20306;-72
2023/10/04 09:19:39;;;;;;;3.63;1.33;;;;;;;;;;6276142;28;20302;-71
2023/10/04 09:22:43;;;;;;;4.22;1.60;;;;;;;;;;6276496;28;20599;-72
2023/10/04 09:25:46;;;;;;;3.83;2.00;;;;;;;;;;6274522;28;20573;-73
2023/10/04 09:28:52;;;;;;;2.67;1.73;;;;;;;;;;6276110;28;20587;-71
2023/10/04 09:31:56;;;;;;;12.93;2.25;;;;;;;;;;6276046;28;20291;-71
2023/10/04 09:35:00;;;;;;;5.95;1.48;;;;;;;;;;6275904;28;20301;-71
2023/10/04 09:38:15;;;;;;;3.28;1.20;;;;;;;;;;6276055;28;20789;-73
2023/10/04 09:41:19;;;;;;;4.28;1.45;;;;;;;;;;6298458;28;20790;-70
2023/10/04 09:44:26;;;;;;;4.15;1.27;;;;;;;;;;6300690;28;20299;-73
2023/10/04 09:47:38;;;;;;;2.60;1.52;;;;;;;;;;6301148;28;20290;-71
2023/10/04 09:50:42;;;;;;;5.63;1.60;;;;;;;;;;6300263;28;20299;-70
2023/10/04 09:53:46;;;;;;;2.92;1.55;;;;;;;;;;6300483;28;20286;-71
2023/10/04 09:56:50;;;;;;;3.92;1.33;;;;;;;;;;6300349;28;20382;-71
2023/10/04 09:59:56;;;;;;;10.05;2.13;;;;;;;;;;6300117;28;20290;-72
2023/10/04 10:03:01;;;;;;;3.42;1.30;;;;;;;;;;6300489;28;20295;-72
2023/10/04 10:06:07;;;;;;;3.13;1.52;;;;;;;;;;6299914;28;20322;-74
2023/10/04 10:09:13;;;;;;;5.68;1.83;;;;;;;;;;6283881;28;20303;-72
2023/10/04 10:12:17;;;;;;;1.73;1.25;;;;;;;;;;6283459;28;20287;-72
2023/10/04 10:15:22;;;;;;;4.45;1.40;;;;;;;;;;6283446;28;20436;-72
2023/10/04 10:18:27;;;;;;;1.63;1.20;;;;;;;;;;6283107;28;20596;-72
2023/10/04 10:22:08;;;;;;;8.13;1.40;;;;;;;;;;6283566;28;20291;-71
2023/10/04 10:25:14;;;;;;;3.80;1.23;;;;;;;;;;6282363;28;20306;-69
2023/10/04 10:28:22;;;;;;;6.75;1.27;;;;;;;;;;6283042;28;20299;-72
2023/10/04 10:31:29;;;;;;;1.75;1.17;;;;;;;;;;6282146;28;20295;-72
2023/10/04 10:34:38;;;;;;;4.03;1.30;;;;;;;;;;6282924;28;20568;-70
2023/10/04 10:37:42;;;;;;;6.68;1.65;;;;;;;;;;6283036;28;20315;-71
2023/10/04 10:40:46;;;;;;;3.60;1.35;;;;;;;;;;6280956;28;20299;-70
2023/10/04 10:44:19;;;;;;;2.20;1.10;;;;;;;;;;6282870;28;20283;-71
2023/10/04 10:47:26;;;;;;;4.32;1.30;;;;;;;;;;6282759;28;20307;-72
2023/10/04 10:50:33;;;;;;;4.30;1.13;;;;;;;;;;6281224;28;20430;-71
2023/10/04 10:53:37;;;;;;;1.48;1.00;;;;;;;;;;6282428;28;20569;-70
2023/10/04 10:56:41;;;;;;;3.70;1.30;;;;;;;;;;6280833;28;20295;-70
2023/10/04 10:59:46;;;;;;;4.93;0.90;;;;;;;;;;6282191;28;20322;-73
2023/10/04 11:02:53;;;;;;;4.68;1.08;;;;;;;;;;6282506;28;20307;-71
2023/10/04 11:05:58;;;;;;;6.40;1.38;;;;;;;;;;6282019;28;20315;-70
2023/10/04 11:09:02;;;;;;;4.65;1.20;;;;;;;;;;6281891;28;20570;-71
2023/10/04 11:12:07;;;;;;;2.97;1.25;;;;;;;;;;6282064;28;20307;-70
2023/10/04 11:15:11;;;;;;;3.95;1.10;;;;;;;;;;6281719;28;20291;-71
2023/10/04 11:18:16;;;;;;;6.65;1.30;;;;;;;;;;6279934;28;20449;-71
2023/10/04 11:21:22;;;;;;;10.60;1.20;;;;;;;;;;6281355;28;20551;-71
2023/10/04 11:24:26;;;;;;;7.28;1.33;;;;;;;;;;6281460;28;20310;-70
2023/10/04 11:27:30;;;;;;;4.35;1.05;;;;;;;;;;6281686;28;20307;-70
2023/10/04 11:30:34;;;;;;;3.35;1.05;;;;;;;;;;6281372;28;20310;-70
2023/10/04 11:33:55;;;;;;;2.53;1.33;;;;;;;;;;6280453;28;20319;-73
2023/10/04 11:37:00;;;;;;;4.30;1.20;;;;;;;;;;6281863;28;20294;-71
2023/10/04 11:40:09;;;;;;;0.95;0.95;;;;;;;;;;6279468;28;20340;-71
2023/10/04 11:43:14;;;;;;;1.08;1.00;;;;;;;;;;6279669;28;20484;-71
2023/10/04 11:46:18;;;;;;;1.50;1.02;;;;;;;;;;6281720;28;20295;-71
2023/10/04 11:49:23;;;;;;;1.17;0.70;;;;;;;;;;6280900;28;20347;-70
2023/10/04 11:52:31;;;;;;;1.55;0.90;;;;;;;;;;6281098;28;20294;-70
2023/10/04 11:55:37;;;;;;;1.45;0.88;;;;;;;;;;6280590;28;20314;-70
2023/10/04 11:58:46;;;;;;;1.05;0.80;;;;;;;;;;6280612;28;20299;-70
2023/10/04 12:01:53;;;;;;;1.50;0.70;;;;;;;;;;6280794;28;20295;-69
2023/10/04 12:05:01;;;;;;;1.08;0.75;;;;;;;;;;6280728;28;20374;-69
2023/10/04 12:08:07;;;;;;;0.70;0.70;;;;;;;;;;6281016;28;20327;-71
2023/10/04 12:11:17;;;;;;;2.22;0.75;;;;;;;;;;6280407;28;20294;-71
2023/10/04 12:14:21;;;;;;;4.38;0.70;;;;;;;;;;6280041;28;20307;-70
2023/10/04 12:17:25;;;;;;;0.80;0.80;;;;;;;;;;6280670;28;20494;-70
2023/10/04 12:20:35;;;;;;;0.77;0.77;;;;;;;;;;6280244;28;20294;-70
2023/10/04 12:23:40;;;;;;;1.63;0.88;;;;;;;;;;6280636;28;20283;-70
2023/10/04 12:26:43;;;;;;;2.05;0.77;;;;;;;;;;6280366;28;20314;-72
2023/10/04 12:29:47;;;;;;;1.58;0.82;;;;;;;;;;6280159;28;20298;-72
2023/10/04 12:32:51;;;;;;;1.83;0.70;;;;;;;;;;6280445;28;20298;-71
2023/10/04 12:35:57;;;;;;;1.00;0.73;;;;;;;;;;6280152;28;20294;-70
2023/10/04 12:39:06;;;;;;;3.20;0.80;;;;;;;;;;6277921;28;20394;-71
2023/10/04 12:42:11;;;;;;;3.50;0.73;;;;;;;;;;6280278;28;20314;-71
2023/10/04 12:45:16;;;;;;;0.73;0.73;;;;;;;;;;6280282;28;20302;-71
2023/10/04 12:48:20;;;;;;;0.65;0.65;;;;;;;;;;6280138;28;20310;-71
2023/10/04 12:51:29;;;;;;;0.88;0.88;;;;;;;;;;6280498;28;20299;-71
2023/10/04 12:54:33;;;;;;;1.83;0.93;;;;;;;;;;6279655;28;20295;-69
2023/10/04 12:57:36;;;;;;;1.55;0.88;;;;;;;;;;6279777;28;20310;-70
2023/10/04 13:00:41;;;;;;;0.95;0.77;;;;;;;;;;6279009;28;20310;-72
2023/10/04 13:03:47;;;;;;;1.90;0.90;;;;;;;;;;6280012;28;20306;-73
2023/10/04 13:06:55;;;;;;;1.55;0.77;;;;;;;;;;6261440;28;20264;-70
2023/10/04 13:10:00;;;;;;;2.20;0.52;;;;;;;;;;6257729;28;20300;-71
2023/10/04 13:13:07;;;;;;;3.78;0.80;;;;;;;;;;6280069;28;20287;-69
2023/10/04 13:16:13;;;;;;;1.98;0.80;;;;;;;;;;6278866;28;20311;-70
2023/10/04 13:19:17;;;;;;;1.48;0.60;;;;;;;;;;6278797;28;20471;-72
2023/10/04 13:22:22;;;;;;;8.57;0.80;;;;;;;;;;6278893;28;20380;-69
2023/10/04 13:25:26;;;;;;;1.75;1.00;;;;;;;;;;6279681;28;20374;-70
2023/10/04 13:28:30;;;;;;;0.80;0.80;;;;;;;;;;6279699;28;20595;-70
2023/10/04 13:31:35;;;;;;;6.72;0.93;;;;;;;;;;6279951;28;20477;-72
2023/10/04 13:34:40;;;;;;;1.65;1.13;;;;;;;;;;6279523;28;20311;-71
2023/10/04 13:37:45;;;;;;;1.05;0.70;;;;;;;;;;6280051;28;20334;-69
2023/10/04 13:40:49;;;;;;;0.68;0.60;;;;;;;;;;6278058;28;20307;-70
2023/10/04 13:43:53;;;;;;;0.70;0.70;;;;;;;;;;6282888;28;20327;-69
2023/10/04 13:46:57;;;;;;;0.70;0.70;;;;;;;;;;6284647;28;20298;-69
2023/10/04 13:50:02;;;;;;;0.65;0.65;;;;;;;;;;6283722;28;20294;-72
2023/10/04 13:53:10;;;;;;;2.83;0.88;;;;;;;;;;6284535;28;20339;-69
2023/10/04 13:56:14;;;;;;;3.10;0.77;;;;;;;;;;6283492;28;20310;-70
2023/10/04 13:59:17;;;;;;;1.45;0.60;;;;;;;;;;6283923;28;20302;-70
2023/10/04 14:02:22;;;;;;;1.60;0.63;;;;;;;;;;6283933;28;20294;-70
2023/10/04 14:05:26;;;;;;;0.50;0.50;;;;;;;;;;6283793;28;20402;-70
2023/10/04 14:08:31;;;;;;;1.73;0.70;;;;;;;;;;6283312;28;20294;-70
2023/10/04 14:11:35;;;;;;;0.70;0.70;;;;;;;;;;6283643;28;20363;-71
2023/10/04 14:14:38;;;;;;;3.33;1.00;;;;;;;;;;6283139;28;20298;-70
2023/10/04 14:17:42;;;;;;;0.70;0.70;;;;;;;;;;6283767;28;20303;-71
2023/10/04 14:20:46;;;;;;;1.45;0.60;;;;;;;;;;6283096;28;20310;-70
2023/10/04 14:23:51;;;;;;;4.38;0.93;;;;;;;;;;6282934;28;20294;-71
2023/10/04 14:27:00;;;;;;;0.82;0.70;;;;;;;;;;6283289;28;20294;-70
2023/10/04 14:30:08;;;;;;;1.05;0.82;;;;;;;;;;6282644;28;20332;-72
2023/10/04 14:33:12;;;;;;;2.28;1.10;;;;;;;;;;6283339;28;20354;-70
2023/10/04 14:36:16;;;;;;;2.85;0.70;;;;;;;;;;6282270;28;20283;-69
2023/10/04 14:39:23;;;;;;;1.27;0.75;;;;;;;;;;6280591;28;20660;-71
2023/10/04 14:42:27;;;;;;;2.47;0.60;;;;;;;;;;6283022;28;20307;-70
2023/10/04 14:45:32;;;;;;;0.60;0.60;;;;;;;;;;6282780;28;20302;-72
2023/10/04 14:48:36;;;;;;;0.70;0.70;;;;;;;;;;6282243;28;20291;-72
2023/10/04 14:51:40;;;;;;;1.50;0.82;;;;;;;;;;6282222;28;20275;-71
2023/10/04 14:54:45;;;;;;;1.17;0.80;;;;;;;;;;6282045;28;20319;-70
2023/10/04 14:57:49;;;;;;;1.55;0.70;;;;;;;;;;6282258;28;20291;-68
2023/10/04 15:00:54;;;;;;;1.88;0.70;;;;;;;;;;6282095;28;20298;-69
2023/10/04 15:03:58;;;;;;;1.17;0.50;;;;;;;;;;6280079;28;20512;-71
2023/10/04 15:07:02;;;;;;;5.55;0.80;;;;;;;;;;6281323;28;20311;-70
2023/10/04 15:10:16;;;;;;;0.90;0.90;;;;;;;;;;6281797;28;20535;-70
2023/10/04 15:13:20;;;;;;;1.42;0.60;;;;;;;;;;6281843;28;20311;-68
2023/10/04 15:16:24;;;;;;;2.92;0.70;;;;;;;;;;6282243;28;20306;-70
2023/10/04 15:19:28;;;;;;;3.83;0.70;;;;;;;;;;6281715;28;20359;-70
2023/10/04 15:22:39;;;;;;;0.80;0.60;;;;;;;;;;6282431;28;20306;-70
2023/10/04 15:25:44;;;;;;;0.80;0.80;;;;;;;;;;6281898;28;20470;-70
2023/10/04 15:28:49;;;;;;;0.93;0.93;;;;;;;;;;6281650;28;20299;-69
2023/10/04 15:31:55;;;;;;;0.68;0.50;;;;;;;;;;6281994;28;20295;-68
2023/10/04 15:35:01;;;;;;;1.30;1.10;;;;;;;;;;6281805;28;20294;-71
2023/10/04 15:38:05;;;;;;;0.65;0.65;;;;;;;;;;6281917;28;20306;-68
2023/10/04 15:41:11;;;;;;;4.38;0.95;;;;;;;;;;6279519;28;20314;-68
2023/10/04 15:44:15;;;;;;;0.57;0.57;;;;;;;;;;6281394;28;20298;-70
2023/10/04 15:47:20;;;;;;;1.55;0.80;;;;;;;;;;6282104;28;20318;-70
2023/10/04 15:50:24;;;;;;;0.70;0.70;;;;;;;;;;6281113;28;20557;-70
2023/10/04 15:53:28;;;;;;;5.03;1.08;;;;;;;;;;6281126;28;20299;-70
2023/10/04 15:56:33;;;;;;;2.05;0.90;;;;;;;;;;6280967;28;20482;-69
2023/10/04 15:59:37;;;;;;;2.22;1.25;;;;;;;;;;6281092;28;20545;-71
2023/10/04 16:02:41;;;;;;;11.73;1.40;;;;;;;;;;6281354;28;20516;-70
2023/10/04 16:05:45;;;;;;;3.15;1.20;;;;;;;;;;6280203;28;20299;-70
2023/10/04 16:08:50;;;;;;;7.13;0.95;;;;;;;;;;6281297;28;20541;-69
2023/10/04 16:11:55;;;;;;;3.70;0.70;;;;;;;;;;6281174;28;20303;-73
2023/10/04 16:14:59;;;;;;;6.18;0.90;;;;;;;;;;6280641;28;20299;-70
2023/10/04 16:18:05;;;;;;;1.45;0.88;;;;;;;;;;6281835;28;20291;-71
2023/10/04 16:21:09;;;;;;;3.55;1.08;;;;;;;;;;6280781;28;20243;-70
2023/10/04 16:24:13;;;;;;;1.90;0.80;;;;;;;;;;6280618;28;20595;-71
2023/10/04 16:27:18;;;;;;;2.20;1.35;;;;;;;;;;6281374;28;20574;-70
2023/10/04 16:30:23;;;;;;;14.82;1.50;;;;;;;;;;6280347;28;20286;-71
2023/10/04 16:33:28;;;;;;;1.63;0.80;;;;;;;;;;6280444;28;20548;-72
2023/10/04 16:36:33;;;;;;;10.80;1.92;;;;;;;;;;6280746;28;20292;-70
2023/10/04 16:39:37;;;;;;;4.40;1.52;;;;;;;;;;6278526;28;20307;-72
2023/10/04 16:42:43;;;;;;;3.72;1.77;;;;;;;;;;6279892;28;20326;-72
2023/10/04 16:45:50;;;;;;;4.22;1.33;;;;;;;;;;6278967;28;20295;-71
2023/10/04 16:48:55;;;;;;;2.58;1.20;;;;;;;;;;6280360;28;20318;-72
2023/10/04 16:51:59;;;;;;;2.63;1.05;;;;;;;;;;6280535;28;20306;-71
2023/10/04 16:55:06;;;;;;;3.63;1.17;;;;;;;;;;6278358;28;20298;-70
2023/10/04 16:58:13;;;;;;;5.55;1.42;;;;;;;;;;6280697;28;20306;-71
2023/10/04 17:01:17;;;;;;;9.60;1.60;;;;;;;;;;6279640;28;20302;-71
2023/10/04 17:04:20;;;;;;;1.20;1.08;;;;;;;;;;6280678;28;20307;-74
2023/10/04 17:07:24;;;;;;;2.47;0.82;;;;;;;;;;6280231;28;20316;-73
2023/10/04 17:10:28;;;;;;;11.18;1.35;;;;;;;;;;6280338;28;20302;-71
2023/10/04 17:13:34;;;;;;;7.43;1.33;;;;;;;;;;6280105;28;20287;-71
2023/10/04 17:16:38;;;;;;;7.90;1.50;;;;;;;;;;6280886;28;20576;-73
2023/10/04 17:19:42;;;;;;;5.45;2.10;;;;;;;;;;6284933;28;20302;-71
2023/10/04 17:22:46;;;;;;;2.63;1.35;;;;;;;;;;6285488;28;20298;-70
2023/10/04 17:25:50;;;;;;;3.10;2.20;;;;;;;;;;6284668;28;20295;-70
2023/10/04 17:28:56;;;;;;;9.38;2.50;;;;;;;;;;6284993;28;20454;-72
2023/10/04 17:32:00;;;;;;;6.88;3.05;;;;;;;;;;6285717;28;20334;-72
2023/10/04 17:35:07;;;;;;;22.48;11.50;;;;;;;;;;6284487;28;20306;-70
2023/10/04 17:38:12;;;;;;;199.43;77.13;;;;;;;;;;6284807;28;20295;-71
2023/10/04 17:41:16;;;;;;;80.32;33.38;;;;;;;;;;6282225;28;20613;-71
2023/10/04 17:44:21;;;;;;;13.15;6.55;;;;;;;;;;6284187;28;20323;-70
2023/10/04 17:47:25;;;;;;;6.97;3.35;;;;;;;;;;6284887;28;20303;-71
2023/10/04 17:50:29;;;;;;;10.07;1.77;;;;;;;;;;6284196;28;20462;-72
2023/10/04 17:53:34;;;;;;;4.35;1.30;;;;;;;;;;6284189;28;20303;-73
2023/10/04 17:56:38;;;;;;;1.80;1.63;;;;;;;;;;6284168;28;20302;-71
2023/10/04 17:59:43;;;;;;;3.67;1.13;;;;;;;;;;6283644;28;20299;-70
2023/10/04 18:02:49;;;;;;;1.48;1.30;;;;;;;;;;6284057;28;20382;-69
2023/10/04 18:05:53;;;;;;;4.97;1.45;;;;;;;;;;6283599;28;20421;-71
2023/10/04 18:08:57;;;;;;;3.92;0.98;;;;;;;;;;6283711;28;20294;-69
2023/10/04 18:12:01;;;;;;;3.60;1.00;;;;;;;;;;6283737;28;20290;-73
2023/10/04 18:15:08;;;;;;;12.18;1.13;;;;;;;;;;6283749;28;20290;-70
2023/10/04 18:18:12;;;;;;;9.77;1.08;;;;;;;;;;6284025;28;20323;-70
2023/10/04 18:21:16;;;;;;;12.82;1.50;;;;;;;;;;6283572;28;20479;-70
2023/10/04 18:24:19;;;;;;;17.40;1.60;;;;;;;;;;6283384;28;20305;-70
2023/10/04 18:27:23;;;;;;;11.95;1.40;;;;;;;;;;6283914;28;20413;-70
2023/10/04 18:30:28;;;;;;;2.33;1.00;;;;;;;;;;6282547;28;20294;-71
2023/10/04 18:33:33;;;;;;;8.13;1.40;;;;;;;;;;6282981;28;20565;-71